sensor_id;sensor_type;location;lat;lon;timestamp;temperature;humidity
30999;DHT22;20549;50.042;8.968;2023-09-19T00:00:48;20.30;96.30
30999;DHT22;20549;50.042;8.968;2023-09-19T00:03:15;20.30;96.20
30999;DHT22;20549;50.042;8.968;2023-09-19T00:05:42;20.30;96.20
30999;DHT22;20549;50.042;8.968;2023-09-19T00:08:11;20.30;96.00
30999;DHT22;20549;50.042;8.968;2023-09-19T00:10:37;20.20;96.00
30999;DHT22;20549;50.042;8.968;2023-09-19T00:13:04;20.20;96.00
30999;DHT22;20549;50.042;8.968;2023-09-19T00:15:38;20.20;96.10
30999;DHT22;20549;50.042;8.968;2023-09-19T00:18:03;20.20;96.00
30999;DHT22;20549;50.042;8.968;2023-09-19T00:20:29;20.20;96.30
30999;DHT22;20549;50.042;8.968;2023-09-19T00:22:56;20.10;96.00
30999;DHT22;20549;50.042;8.968;2023-09-19T00:25:22;20.10;96.10
30999;DHT22;20549;50.042;8.968;2023-09-19T00:27:49;20.10;96.30
30999;DHT22;20549;50.042;8.968;2023-09-19T00:30:15;20.00;96.40
30999;DHT22;20549;50.042;8.968;2023-09-19T00:32:42;20.00;96.60
30999;DHT22;20549;50.042;8.968;2023-09-19T00:35:09;20.00;96.60
30999;DHT22;20549;50.042;8.968;2023-09-19T00:37:35;19.90;96.60
30999;DHT22;20549;50.042;8.968;2023-09-19T00:40:03;19.90;96.80
30999;DHT22;20549;50.042;8.968;2023-09-19T00:42:28;19.80;97.00
30999;DHT22;20549;50.042;8.968;2023-09-19T00:44:55;19.80;97.30
30999;DHT22;20549;50.042;8.968;2023-09-19T00:47:22;19.80;97.80
30999;DHT22;20549;50.042;8.968;2023-09-19T00:49:48;19.70;98.20
30999;DHT22;20549;50.042;8.968;2023-09-19T00:52:15;19.70;98.60
30999;DHT22;20549;50.042;8.968;2023-09-19T00:54:41;19.70;98.80
30999;DHT22;20549;50.042;8.968;2023-09-19T00:57:08;19.70;99.00
30999;DHT22;20549;50.042;8.968;2023-09-19T00:59:35;19.70;99.10
30999;DHT22;20549;50.042;8.968;2023-09-19T01:02:02;19.80;99.40
30999;DHT22;20549;50.042;8.968;2023-09-19T01:04:28;19.80;99.40
30999;DHT22;20549;50.042;8.968;2023-09-19T01:06:54;19.80;99.40
30999;DHT22;20549;50.042;8.968;2023-09-19T01:09:21;19.90;99.30
30999;DHT22;20549;50.042;8.968;2023-09-19T01:11:48;19.90;99.40
30999;DHT22;20549;50.042;8.968;2023-09-19T01:14:34;19.90;99.40
30999;DHT22;20549;50.042;8.968;2023-09-19T01:17:14;19.90;99.40
30999;DHT22;20549;50.042;8.968;2023-09-19T01:31:09;20.00;98.40
30999;DHT22;20549;50.042;8.968;2023-09-19T01:33:56;19.90;98.40
30999;DHT22;20549;50.042;8.968;2023-09-19T01:36:28;19.90;98.80
30999;DHT22;20549;50.042;8.968;2023-09-19T01:38:51;19.80;99.00
30999;DHT22;20549;50.042;8.968;2023-09-19T01:41:20;19.80;99.40
30999;DHT22;20549;50.042;8.968;2023-09-19T01:43:44;19.80;99.70
30999;DHT22;20549;50.042;8.968;2023-09-19T01:46:35;19.80;99.90
30999;DHT22;20549;50.042;8.968;2023-09-19T01:48:41;19.80;99.90
30999;DHT22;20549;50.042;8.968;2023-09-19T01:51:07;19.90;99.90
30999;DHT22;20549;50.042;8.968;2023-09-19T01:53:35;19.90;99.90
30999;DHT22;20549;50.042;8.968;2023-09-19T01:56:00;19.90;99.90
30999;DHT22;20549;50.042;8.968;2023-09-19T01:58:46;20.00;99.90
30999;DHT22;20549;50.042;8.968;2023-09-19T02:01:11;20.00;99.90
30999;DHT22;20549;50.042;8.968;2023-09-19T02:03:38;20.00;99.90
30999;DHT22;20549;50.042;8.968;2023-09-19T02:06:04;20.10;99.90
30999;DHT22;20549;50.042;8.968;2023-09-19T02:08:31;20.10;99.90
30999;DHT22;20549;50.042;8.968;2023-09-19T02:10:58;20.10;99.90
30999;DHT22;20549;50.042;8.968;2023-09-19T02:13:24;20.20;99.90
30999;DHT22;20549;50.042;8.968;2023-09-19T02:15:51;20.20;99.90
30999;DHT22;20549;50.042;8.968;2023-09-19T02:18:17;20.20;99.90
30999;DHT22;20549;50.042;8.968;2023-09-19T02:20:44;20.20;99.80
30999;DHT22;20549;50.042;8.968;2023-09-19T02:23:10;20.20;99.70
30999;DHT22;20549;50.042;8.968;2023-09-19T02:25:37;20.20;99.70
30999;DHT22;20549;50.042;8.968;2023-09-19T02:28:04;20.20;99.60
30999;DHT22;20549;50.042;8.968;2023-09-19T02:30:30;20.20;99.60
30999;DHT22;20549;50.042;8.968;2023-09-19T02:32:57;20.20;99.70
30999;DHT22;20549;50.042;8.968;2023-09-19T02:35:23;20.20;99.70
30999;DHT22;20549;50.042;8.968;2023-09-19T02:37:50;20.20;99.70
30999;DHT22;20549;50.042;8.968;2023-09-19T02:40:17;20.20;99.60
30999;DHT22;20549;50.042;8.968;2023-09-19T02:42:49;20.10;99.60
30999;DHT22;20549;50.042;8.968;2023-09-19T02:45:16;20.10;99.40
30999;DHT22;20549;50.042;8.968;2023-09-19T02:47:42;20.10;99.10
30999;DHT22;20549;50.042;8.968;2023-09-19T02:50:08;20.10;99.40
30999;DHT22;20549;50.042;8.968;2023-09-19T02:52:35;20.00;99.40
30999;DHT22;20549;50.042;8.968;2023-09-19T02:55:02;20.00;99.30
30999;DHT22;20549;50.042;8.968;2023-09-19T02:57:28;19.90;99.40
30999;DHT22;20549;50.042;8.968;2023-09-19T02:59:55;19.80;99.90
30999;DHT22;20549;50.042;8.968;2023-09-19T03:02:21;19.80;99.70
30999;DHT22;20549;50.042;8.968;2023-09-19T03:04:48;19.70;99.90
30999;DHT22;20549;50.042;8.968;2023-09-19T03:07:15;19.70;99.90
30999;DHT22;20549;50.042;8.968;2023-09-19T03:09:41;19.60;99.90
30999;DHT22;20549;50.042;8.968;2023-09-19T03:12:08;19.60;99.90
30999;DHT22;20549;50.042;8.968;2023-09-19T03:14:34;19.50;99.90
30999;DHT22;20549;50.042;8.968;2023-09-19T03:17:01;19.50;99.90
30999;DHT22;20549;50.042;8.968;2023-09-19T03:19:28;19.40;99.90
30999;DHT22;20549;50.042;8.968;2023-09-19T03:21:54;19.40;99.90
30999;DHT22;20549;50.042;8.968;2023-09-19T03:24:21;19.30;99.90
30999;DHT22;20549;50.042;8.968;2023-09-19T03:26:47;19.30;99.90
30999;DHT22;20549;50.042;8.968;2023-09-19T03:29:14;19.20;99.90
30999;DHT22;20549;50.042;8.968;2023-09-19T03:31:41;19.20;99.90
30999;DHT22;20549;50.042;8.968;2023-09-19T03:34:07;19.10;99.90
30999;DHT22;20549;50.042;8.968;2023-09-19T03:36:35;19.10;99.90
30999;DHT22;20549;50.042;8.968;2023-09-19T03:39:02;19.00;99.90
30999;DHT22;20549;50.042;8.968;2023-09-19T03:41:28;18.90;99.90
30999;DHT22;20549;50.042;8.968;2023-09-19T03:43:55;18.90;99.90
30999;DHT22;20549;50.042;8.968;2023-09-19T03:46:21;18.80;99.90
30999;DHT22;20549;50.042;8.968;2023-09-19T03:48:48;18.80;99.90
30999;DHT22;20549;50.042;8.968;2023-09-19T03:51:14;18.70;99.90
30999;DHT22;20549;50.042;8.968;2023-09-19T03:53:41;18.70;99.90
30999;DHT22;20549;50.042;8.968;2023-09-19T03:56:08;18.60;99.90
30999;DHT22;20549;50.042;8.968;2023-09-19T03:58:34;18.60;99.90
30999;DHT22;20549;50.042;8.968;2023-09-19T04:01:01;18.50;99.90
30999;DHT22;20549;50.042;8.968;2023-09-19T04:03:27;18.50;99.90
30999;DHT22;20549;50.042;8.968;2023-09-19T04:05:54;18.50;99.90
30999;DHT22;20549;50.042;8.968;2023-09-19T04:08:21;18.50;99.90
30999;DHT22;20549;50.042;8.968;2023-09-19T04:10:47;18.40;99.90
30999;DHT22;20549;50.042;8.968;2023-09-19T04:13:14;18.40;99.90
30999;DHT22;20549;50.042;8.968;2023-09-19T04:15:40;18.40;99.90
30999;DHT22;20549;50.042;8.968;2023-09-19T04:18:07;18.30;99.90
30999;DHT22;20549;50.042;8.968;2023-09-19T04:20:34;18.30;99.90
30999;DHT22;20549;50.042;8.968;2023-09-19T04:23:00;18.30;99.90
30999;DHT22;20549;50.042;8.968;2023-09-19T04:25:27;18.20;99.90
30999;DHT22;20549;50.042;8.968;2023-09-19T04:27:53;18.20;99.90
30999;DHT22;20549;50.042;8.968;2023-09-19T04:30:20;18.20;99.90
30999;DHT22;20549;50.042;8.968;2023-09-19T04:32:46;18.10;99.90
30999;DHT22;20549;50.042;8.968;2023-09-19T04:35:13;18.10;99.90
30999;DHT22;20549;50.042;8.968;2023-09-19T04:37:40;18.10;99.90
30999;DHT22;20549;50.042;8.968;2023-09-19T04:40:09;18.00;99.90
30999;DHT22;20549;50.042;8.968;2023-09-19T04:42:36;18.00;99.90
30999;DHT22;20549;50.042;8.968;2023-09-19T04:45:02;18.00;99.90
30999;DHT22;20549;50.042;8.968;2023-09-19T04:47:29;17.90;99.90
30999;DHT22;20549;50.042;8.968;2023-09-19T04:49:56;17.90;99.90
30999;DHT22;20549;50.042;8.968;2023-09-19T04:52:22;17.90;99.90
30999;DHT22;20549;50.042;8.968;2023-09-19T04:54:49;17.90;99.90
30999;DHT22;20549;50.042;8.968;2023-09-19T04:57:15;17.80;99.90
30999;DHT22;20549;50.042;8.968;2023-09-19T04:59:42;17.80;99.90
30999;DHT22;20549;50.042;8.968;2023-09-19T05:02:08;17.80;99.90
30999;DHT22;20549;50.042;8.968;2023-09-19T05:04:35;17.80;99.90
30999;DHT22;20549;50.042;8.968;2023-09-19T05:07:02;17.90;99.90
30999;DHT22;20549;50.042;8.968;2023-09-19T05:09:28;17.90;99.90
30999;DHT22;20549;50.042;8.968;2023-09-19T05:11:55;17.90;99.90
30999;DHT22;20549;50.042;8.968;2023-09-19T05:14:21;18.00;99.90
30999;DHT22;20549;50.042;8.968;2023-09-19T05:16:48;18.10;99.90
30999;DHT22;20549;50.042;8.968;2023-09-19T05:19:15;18.10;99.90
30999;DHT22;20549;50.042;8.968;2023-09-19T05:21:41;18.20;99.90
30999;DHT22;20549;50.042;8.968;2023-09-19T05:24:08;18.30;99.90
30999;DHT22;20549;50.042;8.968;2023-09-19T05:26:34;18.30;99.90
30999;DHT22;20549;50.042;8.968;2023-09-19T05:29:01;18.40;99.90
30999;DHT22;20549;50.042;8.968;2023-09-19T05:31:28;18.40;99.90
30999;DHT22;20549;50.042;8.968;2023-09-19T05:33:54;18.40;99.90
30999;DHT22;20549;50.042;8.968;2023-09-19T05:36:21;18.40;99.90
30999;DHT22;20549;50.042;8.968;2023-09-19T05:38:47;18.40;99.90
30999;DHT22;20549;50.042;8.968;2023-09-19T05:41:14;18.50;99.90
30999;DHT22;20549;50.042;8.968;2023-09-19T05:43:40;18.50;99.90
30999;DHT22;20549;50.042;8.968;2023-09-19T05:46:07;18.50;99.90
30999;DHT22;20549;50.042;8.968;2023-09-19T05:48:34;18.50;99.90
30999;DHT22;20549;50.042;8.968;2023-09-19T05:51:00;18.50;99.90
30999;DHT22;20549;50.042;8.968;2023-09-19T05:53:29;18.60;99.90
30999;DHT22;20549;50.042;8.968;2023-09-19T05:55:56;18.60;99.90
30999;DHT22;20549;50.042;8.968;2023-09-19T05:58:22;18.70;99.90
30999;DHT22;20549;50.042;8.968;2023-09-19T06:00:49;18.70;99.90
30999;DHT22;20549;50.042;8.968;2023-09-19T06:03:16;18.80;99.90
30999;DHT22;20549;50.042;8.968;2023-09-19T06:05:42;18.90;99.90
30999;DHT22;20549;50.042;8.968;2023-09-19T06:08:09;19.00;99.90
30999;DHT22;20549;50.042;8.968;2023-09-19T06:10:35;19.00;99.90
30999;DHT22;20549;50.042;8.968;2023-09-19T06:13:05;19.10;99.90
30999;DHT22;20549;50.042;8.968;2023-09-19T06:15:31;19.20;99.90
30999;DHT22;20549;50.042;8.968;2023-09-19T06:17:58;19.30;99.90
30999;DHT22;20549;50.042;8.968;2023-09-19T06:20:27;19.50;99.90
30999;DHT22;20549;50.042;8.968;2023-09-19T06:22:54;19.60;99.90
30999;DHT22;20549;50.042;8.968;2023-09-19T06:25:20;19.70;99.90
30999;DHT22;20549;50.042;8.968;2023-09-19T06:27:50;19.90;99.90
30999;DHT22;20549;50.042;8.968;2023-09-19T06:30:16;20.00;99.90
30999;DHT22;20549;50.042;8.968;2023-09-19T06:32:43;20.10;99.90
30999;DHT22;20549;50.042;8.968;2023-09-19T06:35:12;20.30;99.90
30999;DHT22;20549;50.042;8.968;2023-09-19T06:37:39;20.40;99.90
30999;DHT22;20549;50.042;8.968;2023-09-19T06:40:06;20.50;99.90
30999;DHT22;20549;50.042;8.968;2023-09-19T06:42:32;20.60;99.90
30999;DHT22;20549;50.042;8.968;2023-09-19T06:44:58;20.60;99.90
30999;DHT22;20549;50.042;8.968;2023-09-19T06:47:25;20.70;99.90
30999;DHT22;20549;50.042;8.968;2023-09-19T06:49:52;20.80;99.90
30999;DHT22;20549;50.042;8.968;2023-09-19T06:52:18;21.00;99.90
30999;DHT22;20549;50.042;8.968;2023-09-19T06:54:45;21.10;99.90
30999;DHT22;20549;50.042;8.968;2023-09-19T06:57:11;21.20;99.90
30999;DHT22;20549;50.042;8.968;2023-09-19T06:59:38;21.40;99.90
30999;DHT22;20549;50.042;8.968;2023-09-19T07:02:04;21.50;99.10
30999;DHT22;20549;50.042;8.968;2023-09-19T07:04:31;21.60;98.30
30999;DHT22;20549;50.042;8.968;2023-09-19T07:06:58;21.80;97.70
30999;DHT22;20549;50.042;8.968;2023-09-19T07:09:24;22.00;97.40
30999;DHT22;20549;50.042;8.968;2023-09-19T07:11:51;22.10;96.60
30999;DHT22;20549;50.042;8.968;2023-09-19T07:14:17;22.30;95.80
30999;DHT22;20549;50.042;8.968;2023-09-19T07:16:44;22.40;95.10
30999;DHT22;20549;50.042;8.968;2023-09-19T07:19:11;22.60;94.80
30999;DHT22;20549;50.042;8.968;2023-09-19T07:21:37;22.70;94.40
30999;DHT22;20549;50.042;8.968;2023-09-19T07:24:04;22.90;93.20
30999;DHT22;20549;50.042;8.968;2023-09-19T07:26:30;23.10;91.90
30999;DHT22;20549;50.042;8.968;2023-09-19T07:28:57;23.30;91.00
30999;DHT22;20549;50.042;8.968;2023-09-19T07:31:24;23.40;90.10
30999;DHT22;20549;50.042;8.968;2023-09-19T07:33:50;23.50;88.50
30999;DHT22;20549;50.042;8.968;2023-09-19T07:36:17;23.60;87.50
30999;DHT22;20549;50.042;8.968;2023-09-19T07:38:43;23.70;86.40
30999;DHT22;20549;50.042;8.968;2023-09-19T07:41:11;23.80;85.60
30999;DHT22;20549;50.042;8.968;2023-09-19T07:43:38;23.90;84.80
30999;DHT22;20549;50.042;8.968;2023-09-19T07:46:07;24.00;84.60
30999;DHT22;20549;50.042;8.968;2023-09-19T07:48:33;24.10;84.50
30999;DHT22;20549;50.042;8.968;2023-09-19T07:51:06;24.30;83.50
30999;DHT22;20549;50.042;8.968;2023-09-19T07:53:33;24.40;82.10
30999;DHT22;20549;50.042;8.968;2023-09-19T07:56:08;24.50;80.80
30999;DHT22;20549;50.042;8.968;2023-09-19T07:58:34;24.50;79.20
30999;DHT22;20549;50.042;8.968;2023-09-19T08:01:07;24.60;77.80
30999;DHT22;20549;50.042;8.968;2023-09-19T08:03:33;24.60;76.80
30999;DHT22;20549;50.042;8.968;2023-09-19T08:06:00;24.50;76.10
30999;DHT22;20549;50.042;8.968;2023-09-19T08:08:27;24.50;75.50
30999;DHT22;20549;50.042;8.968;2023-09-19T08:10:56;24.40;75.10
30999;DHT22;20549;50.042;8.968;2023-09-19T08:13:25;24.30;75.10
30999;DHT22;20549;50.042;8.968;2023-09-19T08:15:52;24.30;74.80
30999;DHT22;20549;50.042;8.968;2023-09-19T08:18:21;24.30;75.00
30999;DHT22;20549;50.042;8.968;2023-09-19T08:20:51;24.40;75.10
30999;DHT22;20549;50.042;8.968;2023-09-19T08:23:17;24.40;74.70
30999;DHT22;20549;50.042;8.968;2023-09-19T08:25:44;24.50;74.50
30999;DHT22;20549;50.042;8.968;2023-09-19T08:28:10;24.70;74.00
30999;DHT22;20549;50.042;8.968;2023-09-19T08:30:37;24.80;73.40
30999;DHT22;20549;50.042;8.968;2023-09-19T08:33:03;25.00;73.00
30999;DHT22;20549;50.042;8.968;2023-09-19T08:35:30;25.10;72.30
30999;DHT22;20549;50.042;8.968;2023-09-19T08:37:57;25.30;71.20
30999;DHT22;20549;50.042;8.968;2023-09-19T08:40:23;25.50;70.50
30999;DHT22;20549;50.042;8.968;2023-09-19T08:42:54;25.60;69.50
30999;DHT22;20549;50.042;8.968;2023-09-19T08:45:20;25.70;68.90
30999;DHT22;20549;50.042;8.968;2023-09-19T08:47:47;25.80;68.00
30999;DHT22;20549;50.042;8.968;2023-09-19T08:50:26;25.80;67.10
30999;DHT22;20549;50.042;8.968;2023-09-19T08:52:51;25.90;66.90
30999;DHT22;20549;50.042;8.968;2023-09-19T08:55:17;25.90;67.00
30999;DHT22;20549;50.042;8.968;2023-09-19T08:57:44;26.00;66.40
30999;DHT22;20549;50.042;8.968;2023-09-19T09:00:11;26.10;66.20
30999;DHT22;20549;50.042;8.968;2023-09-19T09:02:41;26.20;67.10
30999;DHT22;20549;50.042;8.968;2023-09-19T09:05:10;26.40;65.90
30999;DHT22;20549;50.042;8.968;2023-09-19T09:07:39;26.50;65.20
30999;DHT22;20549;50.042;8.968;2023-09-19T09:10:05;26.70;64.60
30999;DHT22;20549;50.042;8.968;2023-09-19T09:12:32;27.00;64.60
30999;DHT22;20549;50.042;8.968;2023-09-19T09:14:59;27.30;64.70
30999;DHT22;20549;50.042;8.968;2023-09-19T09:17:25;27.60;63.90
30999;DHT22;20549;50.042;8.968;2023-09-19T09:19:52;27.90;63.70
30999;DHT22;20549;50.042;8.968;2023-09-19T09:22:18;28.20;62.90
30999;DHT22;20549;50.042;8.968;2023-09-19T09:24:52;28.50;62.00
30999;DHT22;20549;50.042;8.968;2023-09-19T09:27:17;28.90;60.90
30999;DHT22;20549;50.042;8.968;2023-09-19T09:29:45;29.20;60.00
30999;DHT22;20549;50.042;8.968;2023-09-19T09:32:21;29.50;59.10
30999;DHT22;20549;50.042;8.968;2023-09-19T09:34:53;29.70;58.50
30999;DHT22;20549;50.042;8.968;2023-09-19T09:37:19;29.90;57.90
30999;DHT22;20549;50.042;8.968;2023-09-19T09:39:54;30.00;57.00
30999;DHT22;20549;50.042;8.968;2023-09-19T09:42:35;30.00;56.20
30999;DHT22;20549;50.042;8.968;2023-09-19T09:45:20;30.00;55.90
30999;DHT22;20549;50.042;8.968;2023-09-19T09:47:55;29.90;56.00
30999;DHT22;20549;50.042;8.968;2023-09-19T09:50:28;29.80;55.80
30999;DHT22;20549;50.042;8.968;2023-09-19T09:52:55;29.70;55.50
30999;DHT22;20549;50.042;8.968;2023-09-19T09:55:21;29.60;55.00
30999;DHT22;20549;50.042;8.968;2023-09-19T09:57:50;29.50;54.90
30999;DHT22;20549;50.042;8.968;2023-09-19T10:00:14;29.40;54.70
30999;DHT22;20549;50.042;8.968;2023-09-19T10:02:43;29.20;54.50
30999;DHT22;20549;50.042;8.968;2023-09-19T10:05:13;29.10;54.80
30999;DHT22;20549;50.042;8.968;2023-09-19T10:07:55;29.00;54.40
30999;DHT22;20549;50.042;8.968;2023-09-19T10:10:34;28.90;54.10
30999;DHT22;20549;50.042;8.968;2023-09-19T10:13:12;28.80;53.40
30999;DHT22;20549;50.042;8.968;2023-09-19T10:15:35;28.60;53.60
30999;DHT22;20549;50.042;8.968;2023-09-19T10:18:01;28.40;53.70
30999;DHT22;20549;50.042;8.968;2023-09-19T10:20:28;28.30;53.70
30999;DHT22;20549;50.042;8.968;2023-09-19T10:23:03;28.20;53.20
30999;DHT22;20549;50.042;8.968;2023-09-19T10:25:27;28.00;53.30
30999;DHT22;20549;50.042;8.968;2023-09-19T10:27:57;27.90;53.20
30999;DHT22;20549;50.042;8.968;2023-09-19T10:30:23;27.80;53.10
30999;DHT22;20549;50.042;8.968;2023-09-19T10:32:53;27.70;53.30
30999;DHT22;20549;50.042;8.968;2023-09-19T10:35:16;27.50;53.30
30999;DHT22;20549;50.042;8.968;2023-09-19T10:37:43;27.40;53.30
30999;DHT22;20549;50.042;8.968;2023-09-19T10:40:09;27.30;53.40
30999;DHT22;20549;50.042;8.968;2023-09-19T10:42:37;27.20;53.60
30999;DHT22;20549;50.042;8.968;2023-09-19T10:45:02;27.10;53.70
30999;DHT22;20549;50.042;8.968;2023-09-19T10:47:29;27.00;53.90
30999;DHT22;20549;50.042;8.968;2023-09-19T10:49:56;27.00;54.10
30999;DHT22;20549;50.042;8.968;2023-09-19T10:52:23;26.90;54.00
30999;DHT22;20549;50.042;8.968;2023-09-19T10:54:49;26.80;54.00
30999;DHT22;20549;50.042;8.968;2023-09-19T10:57:18;26.70;54.00
30999;DHT22;20549;50.042;8.968;2023-09-19T11:00:00;26.60;54.10
30999;DHT22;20549;50.042;8.968;2023-09-19T11:02:18;26.50;54.20
30999;DHT22;20549;50.042;8.968;2023-09-19T11:04:44;26.40;54.20
30999;DHT22;20549;50.042;8.968;2023-09-19T11:07:14;26.30;54.30
30999;DHT22;20549;50.042;8.968;2023-09-19T11:09:55;26.30;54.30
30999;DHT22;20549;50.042;8.968;2023-09-19T11:14:57;26.20;53.90
30999;DHT22;20549;50.042;8.968;2023-09-19T11:17:30;26.10;53.60
30999;DHT22;20549;50.042;8.968;2023-09-19T11:30:36;26.10;53.40
30999;DHT22;20549;50.042;8.968;2023-09-19T11:33:24;26.10;53.20
30999;DHT22;20549;50.042;8.968;2023-09-19T11:36:08;26.10;53.20
30999;DHT22;20549;50.042;8.968;2023-09-19T11:43:48;26.00;53.30
30999;DHT22;20549;50.042;8.968;2023-09-19T11:46:15;26.00;53.40
30999;DHT22;20549;50.042;8.968;2023-09-19T11:48:42;26.00;53.30
30999;DHT22;20549;50.042;8.968;2023-09-19T11:51:11;26.10;53.20
30999;DHT22;20549;50.042;8.968;2023-09-19T11:53:37;26.10;53.20
30999;DHT22;20549;50.042;8.968;2023-09-19T11:56:06;26.10;53.00
30999;DHT22;20549;50.042;8.968;2023-09-19T11:58:30;26.10;52.70
30999;DHT22;20549;50.042;8.968;2023-09-19T12:00:57;26.10;52.60
30999;DHT22;20549;50.042;8.968;2023-09-19T12:03:24;26.10;52.50
30999;DHT22;20549;50.042;8.968;2023-09-19T12:05:50;26.00;52.30
30999;DHT22;20549;50.042;8.968;2023-09-19T12:08:17;26.00;52.40
30999;DHT22;20549;50.042;8.968;2023-09-19T12:10:50;25.90;52.60
30999;DHT22;20549;50.042;8.968;2023-09-19T12:13:16;25.90;52.60
30999;DHT22;20549;50.042;8.968;2023-09-19T12:15:42;25.80;52.30
30999;DHT22;20549;50.042;8.968;2023-09-19T12:18:09;25.80;52.50
30999;DHT22;20549;50.042;8.968;2023-09-19T12:20:44;25.80;52.60
30999;DHT22;20549;50.042;8.968;2023-09-19T12:23:13;25.70;52.50
30999;DHT22;20549;50.042;8.968;2023-09-19T12:25:43;25.70;52.60
30999;DHT22;20549;50.042;8.968;2023-09-19T12:28:12;25.80;52.70
30999;DHT22;20549;50.042;8.968;2023-09-19T12:30:39;25.70;52.50
30999;DHT22;20549;50.042;8.968;2023-09-19T12:33:05;25.70;52.10
30999;DHT22;20549;50.042;8.968;2023-09-19T12:35:32;25.70;52.10
30999;DHT22;20549;50.042;8.968;2023-09-19T12:37:58;25.70;52.00
30999;DHT22;20549;50.042;8.968;2023-09-19T12:40:25;25.60;52.10
30999;DHT22;20549;50.042;8.968;2023-09-19T12:42:52;25.60;52.20
30999;DHT22;20549;50.042;8.968;2023-09-19T12:45:18;25.60;52.80
30999;DHT22;20549;50.042;8.968;2023-09-19T12:48:22;25.60;52.20
30999;DHT22;20549;50.042;8.968;2023-09-19T12:51:07;25.60;51.90
30999;DHT22;20549;50.042;8.968;2023-09-19T12:53:39;25.50;52.10
30999;DHT22;20549;50.042;8.968;2023-09-19T12:56:15;25.50;52.20
30999;DHT22;20549;50.042;8.968;2023-09-19T13:01:16;25.40;51.80
30999;DHT22;20549;50.042;8.968;2023-09-19T13:03:42;25.40;51.90
30999;DHT22;20549;50.042;8.968;2023-09-19T13:06:09;25.30;52.00
30999;DHT22;20549;50.042;8.968;2023-09-19T13:08:37;25.30;52.00
30999;DHT22;20549;50.042;8.968;2023-09-19T13:11:15;25.20;51.70
30999;DHT22;20549;50.042;8.968;2023-09-19T13:16:28;25.20;51.80
30999;DHT22;20549;50.042;8.968;2023-09-19T13:18:55;25.20;51.60
30999;DHT22;20549;50.042;8.968;2023-09-19T13:21:34;25.10;51.60
30999;DHT22;20549;50.042;8.968;2023-09-19T13:24:19;25.10;51.60
30999;DHT22;20549;50.042;8.968;2023-09-19T13:26:29;25.00;51.70
30999;DHT22;20549;50.042;8.968;2023-09-19T13:28:56;25.00;51.70
30999;DHT22;20549;50.042;8.968;2023-09-19T13:31:23;24.90;51.70
30999;DHT22;20549;50.042;8.968;2023-09-19T13:33:49;24.90;51.80
30999;DHT22;20549;50.042;8.968;2023-09-19T13:36:16;24.90;51.90
30999;DHT22;20549;50.042;8.968;2023-09-19T13:38:42;25.00;52.00
30999;DHT22;20549;50.042;8.968;2023-09-19T13:41:09;25.00;52.00
30999;DHT22;20549;50.042;8.968;2023-09-19T13:43:36;25.00;52.00
30999;DHT22;20549;50.042;8.968;2023-09-19T13:46:03;25.10;51.90
30999;DHT22;20549;50.042;8.968;2023-09-19T13:48:29;25.10;51.40
30999;DHT22;20549;50.042;8.968;2023-09-19T13:50:56;25.10;51.40
30999;DHT22;20549;50.042;8.968;2023-09-19T13:53:22;25.20;51.40
30999;DHT22;20549;50.042;8.968;2023-09-19T13:55:48;25.20;51.30
30999;DHT22;20549;50.042;8.968;2023-09-19T13:58:15;25.20;51.30
30999;DHT22;20549;50.042;8.968;2023-09-19T14:00:42;25.20;51.40
30999;DHT22;20549;50.042;8.968;2023-09-19T14:03:08;25.20;51.30
30999;DHT22;20549;50.042;8.968;2023-09-19T14:05:35;25.20;51.20
30999;DHT22;20549;50.042;8.968;2023-09-19T14:08:01;25.20;51.10
30999;DHT22;20549;50.042;8.968;2023-09-19T14:10:28;25.20;51.10
30999;DHT22;20549;50.042;8.968;2023-09-19T14:12:55;25.20;51.20
30999;DHT22;20549;50.042;8.968;2023-09-19T14:15:21;25.20;51.20
30999;DHT22;20549;50.042;8.968;2023-09-19T14:17:48;25.10;51.20
30999;DHT22;20549;50.042;8.968;2023-09-19T14:20:14;25.10;51.30
30999;DHT22;20549;50.042;8.968;2023-09-19T14:22:41;25.00;51.20
30999;DHT22;20549;50.042;8.968;2023-09-19T14:25:08;25.00;51.30
30999;DHT22;20549;50.042;8.968;2023-09-19T14:27:34;25.00;51.30
30999;DHT22;20549;50.042;8.968;2023-09-19T14:30:01;25.00;51.30
30999;DHT22;20549;50.042;8.968;2023-09-19T14:32:27;24.90;51.30
30999;DHT22;20549;50.042;8.968;2023-09-19T14:34:54;24.90;51.10
30999;DHT22;20549;50.042;8.968;2023-09-19T14:37:20;24.90;51.10
30999;DHT22;20549;50.042;8.968;2023-09-19T14:39:50;24.90;51.10
30999;DHT22;20549;50.042;8.968;2023-09-19T14:42:17;24.90;51.30
30999;DHT22;20549;50.042;8.968;2023-09-19T14:44:43;24.80;51.30
30999;DHT22;20549;50.042;8.968;2023-09-19T14:47:10;24.80;51.40
30999;DHT22;20549;50.042;8.968;2023-09-19T14:49:36;24.80;51.40
30999;DHT22;20549;50.042;8.968;2023-09-19T14:52:03;24.80;51.60
30999;DHT22;20549;50.042;8.968;2023-09-19T14:54:30;24.70;51.60
30999;DHT22;20549;50.042;8.968;2023-09-19T14:56:56;24.70;51.70
30999;DHT22;20549;50.042;8.968;2023-09-19T14:59:23;24.70;51.80
30999;DHT22;20549;50.042;8.968;2023-09-19T15:01:49;24.70;51.70
30999;DHT22;20549;50.042;8.968;2023-09-19T15:04:16;24.60;51.70
30999;DHT22;20549;50.042;8.968;2023-09-19T15:06:43;24.50;51.60
30999;DHT22;20549;50.042;8.968;2023-09-19T15:09:09;24.50;51.70
30999;DHT22;20549;50.042;8.968;2023-09-19T15:11:36;24.40;51.80
30999;DHT22;20549;50.042;8.968;2023-09-19T15:14:02;24.40;51.90
30999;DHT22;20549;50.042;8.968;2023-09-19T15:16:29;24.30;52.00
30999;DHT22;20549;50.042;8.968;2023-09-19T15:18:56;24.30;52.00
30999;DHT22;20549;50.042;8.968;2023-09-19T15:21:22;24.30;52.10
30999;DHT22;20549;50.042;8.968;2023-09-19T15:23:49;24.20;52.20
30999;DHT22;20549;50.042;8.968;2023-09-19T15:26:15;24.20;52.30
30999;DHT22;20549;50.042;8.968;2023-09-19T15:28:42;24.20;52.50
30999;DHT22;20549;50.042;8.968;2023-09-19T15:31:12;24.20;52.50
30999;DHT22;20549;50.042;8.968;2023-09-19T15:33:35;24.10;52.60
30999;DHT22;20549;50.042;8.968;2023-09-19T15:36:08;24.10;52.60
30999;DHT22;20549;50.042;8.968;2023-09-19T15:38:31;24.10;52.70
30999;DHT22;20549;50.042;8.968;2023-09-19T15:40:58;24.00;52.80
30999;DHT22;20549;50.042;8.968;2023-09-19T15:43:24;24.00;52.90
30999;DHT22;20549;50.042;8.968;2023-09-19T15:45:51;24.00;53.00
30999;DHT22;20549;50.042;8.968;2023-09-19T15:48:17;23.90;53.00
30999;DHT22;20549;50.042;8.968;2023-09-19T15:50:44;23.90;53.10
30999;DHT22;20549;50.042;8.968;2023-09-19T15:53:11;23.90;53.20
30999;DHT22;20549;50.042;8.968;2023-09-19T15:55:40;23.90;53.30
30999;DHT22;20549;50.042;8.968;2023-09-19T15:58:07;23.80;53.30
30999;DHT22;20549;50.042;8.968;2023-09-19T16:00:33;23.80;53.40
30999;DHT22;20549;50.042;8.968;2023-09-19T16:03:02;23.80;53.50
30999;DHT22;20549;50.042;8.968;2023-09-19T16:05:35;23.80;53.50
30999;DHT22;20549;50.042;8.968;2023-09-19T16:08:05;23.70;53.60